sensor_id;sensor_type;location;lat;lon;timestamp;P1;durP1;ratioP1;P2;durP2;ratioP2
5483;SDS011;2764;48.794;8.326;2023-08-30T00:00:02;4.30;;;3.70;;
5483;SDS011;2764;48.794;8.326;2023-08-30T00:01:04;3.63;;;3.30;;
5483;SDS011;2764;48.794;8.326;2023-08-30T00:02:06;6.63;;;3.67;;
5483;SDS011;2764;48.794;8.326;2023-08-30T00:03:10;5.43;;;3.80;;
5483;SDS011;2764;48.794;8.326;2023-08-30T00:04:13;3.80;;;3.60;;
5483;SDS011;2764;48.794;8.326;2023-08-30T00:05:14;3.60;;;3.30;;
5483;SDS011;2764;48.794;8.326;2023-08-30T00:06:16;7.00;;;4.57;;
5483;SDS011;2764;48.794;8.326;2023-08-30T00:07:17;9.20;;;4.23;;
5483;SDS011;2764;48.794;8.326;2023-08-30T00:08:19;5.03;;;4.60;;
5483;SDS011;2764;48.794;8.326;2023-08-30T00:09:21;4.57;;;4.10;;
5483;SDS011;2764;48.794;8.326;2023-08-30T00:10:22;4.30;;;4.00;;
5483;SDS011;2764;48.794;8.326;2023-08-30T00:11:24;7.07;;;4.63;;
5483;SDS011;2764;48.794;8.326;2023-08-30T00:12:26;5.13;;;4.20;;
5483;SDS011;2764;48.794;8.326;2023-08-30T00:13:29;3.90;;;3.50;;
5483;SDS011;2764;48.794;8.326;2023-08-30T00:14:31;4.10;;;3.90;;
5483;SDS011;2764;48.794;8.326;2023-08-30T00:15:34;6.03;;;4.00;;
5483;SDS011;2764;48.794;8.326;2023-08-30T00:16:35;3.90;;;3.53;;
5483;SDS011;2764;48.794;8.326;2023-08-30T00:17:39;4.07;;;3.73;;
5483;SDS011;2764;48.794;8.326;2023-08-30T00:18:41;6.43;;;4.03;;
5483;SDS011;2764;48.794;8.326;2023-08-30T00:19:43;4.53;;;3.80;;
5483;SDS011;2764;48.794;8.326;2023-08-30T00:20:45;4.13;;;3.93;;
5483;SDS011;2764;48.794;8.326;2023-08-30T00:21:46;4.37;;;3.97;;
5483;SDS011;2764;48.794;8.326;2023-08-30T00:22:48;4.13;;;3.83;;
5483;SDS011;2764;48.794;8.326;2023-08-30T00:23:49;4.70;;;3.63;;
5483;SDS011;2764;48.794;8.326;2023-08-30T00:24:51;4.00;;;3.70;;
5483;SDS011;2764;48.794;8.326;2023-08-30T00:25:53;4.73;;;3.53;;
5483;SDS011;2764;48.794;8.326;2023-08-30T00:26:54;3.80;;;3.53;;
5483;SDS011;2764;48.794;8.326;2023-08-30T00:27:56;7.80;;;3.87;;
5483;SDS011;2764;48.794;8.326;2023-08-30T00:28:58;3.87;;;3.70;;
5483;SDS011;2764;48.794;8.326;2023-08-30T00:29:59;4.07;;;3.77;;
5483;SDS011;2764;48.794;8.326;2023-08-30T00:31:01;4.13;;;3.50;;
5483;SDS011;2764;48.794;8.326;2023-08-30T00:32:03;3.97;;;3.67;;
5483;SDS011;2764;48.794;8.326;2023-08-30T00:33:05;9.53;;;3.83;;
5483;SDS011;2764;48.794;8.326;2023-08-30T00:34:07;3.70;;;3.50;;
5483;SDS011;2764;48.794;8.326;2023-08-30T00:35:08;5.80;;;4.50;;
5483;SDS011;2764;48.794;8.326;2023-08-30T00:36:10;3.63;;;3.33;;
5483;SDS011;2764;48.794;8.326;2023-08-30T00:37:12;4.07;;;3.70;;
5483;SDS011;2764;48.794;8.326;2023-08-30T00:38:14;10.87;;;3.00;;
5483;SDS011;2764;48.794;8.326;2023-08-30T00:39:15;3.80;;;3.50;;
5483;SDS011;2764;48.794;8.326;2023-08-30T00:40:17;3.83;;;3.30;;
5483;SDS011;2764;48.794;8.326;2023-08-30T00:41:18;3.57;;;3.27;;
5483;SDS011;2764;48.794;8.326;2023-08-30T00:42:20;3.30;;;3.10;;
5483;SDS011;2764;48.794;8.326;2023-08-30T00:43:22;3.00;;;2.90;;
5483;SDS011;2764;48.794;8.326;2023-08-30T00:44:23;10.47;;;3.27;;
5483;SDS011;2764;48.794;8.326;2023-08-30T00:45:25;3.67;;;3.47;;
5483;SDS011;2764;48.794;8.326;2023-08-30T00:46:28;3.60;;;3.50;;
5483;SDS011;2764;48.794;8.326;2023-08-30T00:47:30;5.20;;;3.20;;
5483;SDS011;2764;48.794;8.326;2023-08-30T00:48:32;8.10;;;3.47;;
5483;SDS011;2764;48.794;8.326;2023-08-30T00:49:34;3.17;;;2.97;;
5483;SDS011;2764;48.794;8.326;2023-08-30T00:50:35;3.03;;;2.60;;
5483;SDS011;2764;48.794;8.326;2023-08-30T00:51:37;3.57;;;3.30;;
5483;SDS011;2764;48.794;8.326;2023-08-30T00:52:39;4.40;;;3.00;;
5483;SDS011;2764;48.794;8.326;2023-08-30T00:53:41;8.40;;;3.33;;
5483;SDS011;2764;48.794;8.326;2023-08-30T00:54:42;4.97;;;3.20;;
5483;SDS011;2764;48.794;8.326;2023-08-30T00:55:44;5.47;;;2.77;;
5483;SDS011;2764;48.794;8.326;2023-08-30T00:56:46;5.83;;;3.00;;
5483;SDS011;2764;48.794;8.326;2023-08-30T00:57:48;2.93;;;2.83;;
5483;SDS011;2764;48.794;8.326;2023-08-30T00:58:50;2.63;;;2.53;;
5483;SDS011;2764;48.794;8.326;2023-08-30T00:59:53;3.70;;;2.73;;
5483;SDS011;2764;48.794;8.326;2023-08-30T01:00:55;3.27;;;2.30;;
5483;SDS011;2764;48.794;8.326;2023-08-30T01:01:57;3.23;;;2.57;;
5483;SDS011;2764;48.794;8.326;2023-08-30T01:03:00;3.60;;;3.10;;
5483;SDS011;2764;48.794;8.326;2023-08-30T01:04:02;3.03;;;2.70;;
5483;SDS011;2764;48.794;8.326;2023-08-30T01:05:05;3.27;;;3.00;;
5483;SDS011;2764;48.794;8.326;2023-08-30T01:06:07;2.80;;;2.60;;
5483;SDS011;2764;48.794;8.326;2023-08-30T01:07:09;4.53;;;2.70;;
5483;SDS011;2764;48.794;8.326;2023-08-30T01:08:10;3.23;;;2.87;;
5483;SDS011;2764;48.794;8.326;2023-08-30T01:09:12;3.10;;;2.90;;
5483;SDS011;2764;48.794;8.326;2023-08-30T01:10:14;2.80;;;2.70;;
5483;SDS011;2764;48.794;8.326;2023-08-30T01:11:25;5.83;;;3.10;;
5483;SDS011;2764;48.794;8.326;2023-08-30T01:12:35;4.17;;;2.43;;
5483;SDS011;2764;48.794;8.326;2023-08-30T01:13:46;3.83;;;3.00;;
5483;SDS011;2764;48.794;8.326;2023-08-30T01:14:58;2.87;;;2.67;;
5483;SDS011;2764;48.794;8.326;2023-08-30T01:16:06;2.30;;;2.20;;
5483;SDS011;2764;48.794;8.326;2023-08-30T01:17:08;2.77;;;2.63;;
5483;SDS011;2764;48.794;8.326;2023-08-30T01:18:12;2.27;;;2.17;;
5483;SDS011;2764;48.794;8.326;2023-08-30T01:20:33;2.80;;;2.60;;
5483;SDS011;2764;48.794;8.326;2023-08-30T01:21:43;2.67;;;2.57;;
5483;SDS011;2764;48.794;8.326;2023-08-30T01:24:02;7.70;;;2.70;;
5483;SDS011;2764;48.794;8.326;2023-08-30T01:27:32;10.23;;;2.77;;
5483;SDS011;2764;48.794;8.326;2023-08-30T01:28:37;6.97;;;3.67;;
5483;SDS011;2764;48.794;8.326;2023-08-30T01:29:42;4.20;;;2.90;;
5483;SDS011;2764;48.794;8.326;2023-08-30T01:30:46;2.90;;;2.70;;
5483;SDS011;2764;48.794;8.326;2023-08-30T01:31:49;2.60;;;2.47;;
5483;SDS011;2764;48.794;8.326;2023-08-30T01:32:52;7.33;;;2.60;;
5483;SDS011;2764;48.794;8.326;2023-08-30T01:33:56;3.43;;;3.13;;
5483;SDS011;2764;48.794;8.326;2023-08-30T01:34:58;2.90;;;2.70;;
5483;SDS011;2764;48.794;8.326;2023-08-30T01:36:01;5.13;;;3.00;;
5483;SDS011;2764;48.794;8.326;2023-08-30T01:37:06;3.10;;;2.90;;
5483;SDS011;2764;48.794;8.326;2023-08-30T01:38:09;3.00;;;2.33;;
5483;SDS011;2764;48.794;8.326;2023-08-30T01:39:13;2.40;;;2.30;;
5483;SDS011;2764;48.794;8.326;2023-08-30T01:40:16;3.33;;;3.10;;
5483;SDS011;2764;48.794;8.326;2023-08-30T01:41:19;4.00;;;3.10;;
5483;SDS011;2764;48.794;8.326;2023-08-30T01:42:22;2.70;;;2.60;;
5483;SDS011;2764;48.794;8.326;2023-08-30T01:43:28;4.50;;;2.80;;
5483;SDS011;2764;48.794;8.326;2023-08-30T01:44:31;2.60;;;2.50;;
5483;SDS011;2764;48.794;8.326;2023-08-30T01:45:35;3.17;;;2.80;;
5483;SDS011;2764;48.794;8.326;2023-08-30T01:46:39;2.50;;;2.40;;
5483;SDS011;2764;48.794;8.326;2023-08-30T01:47:42;5.10;;;3.10;;
5483;SDS011;2764;48.794;8.326;2023-08-30T01:48:46;4.40;;;4.03;;
5483;SDS011;2764;48.794;8.326;2023-08-30T01:49:48;5.87;;;5.37;;
5483;SDS011;2764;48.794;8.326;2023-08-30T01:50:51;5.50;;;5.10;;
5483;SDS011;2764;48.794;8.326;2023-08-30T01:51:52;10.67;;;5.67;;
5483;SDS011;2764;48.794;8.326;2023-08-30T01:52:55;5.80;;;5.30;;
5483;SDS011;2764;48.794;8.326;2023-08-30T01:53:58;5.00;;;4.73;;
5483;SDS011;2764;48.794;8.326;2023-08-30T01:54:59;4.90;;;4.10;;
5483;SDS011;2764;48.794;8.326;2023-08-30T01:56:03;5.97;;;3.47;;
5483;SDS011;2764;48.794;8.326;2023-08-30T01:57:05;4.83;;;3.20;;
5483;SDS011;2764;48.794;8.326;2023-08-30T01:58:07;3.90;;;3.47;;
5483;SDS011;2764;48.794;8.326;2023-08-30T01:59:10;2.87;;;2.50;;
5483;SDS011;2764;48.794;8.326;2023-08-30T02:00:12;3.07;;;2.87;;
5483;SDS011;2764;48.794;8.326;2023-08-30T02:01:14;2.77;;;2.67;;
5483;SDS011;2764;48.794;8.326;2023-08-30T02:02:16;3.73;;;2.43;;
5483;SDS011;2764;48.794;8.326;2023-08-30T02:03:18;3.37;;;3.03;;
5483;SDS011;2764;48.794;8.326;2023-08-30T02:04:19;5.23;;;3.10;;
5483;SDS011;2764;48.794;8.326;2023-08-30T02:05:21;9.30;;;3.10;;
5483;SDS011;2764;48.794;8.326;2023-08-30T02:07:58;5.60;;;2.80;;
5483;SDS011;2764;48.794;8.326;2023-08-30T02:10:31;4.20;;;3.20;;
5483;SDS011;2764;48.794;8.326;2023-08-30T02:11:36;3.43;;;3.10;;
5483;SDS011;2764;48.794;8.326;2023-08-30T02:12:46;2.80;;;2.70;;
5483;SDS011;2764;48.794;8.326;2023-08-30T02:13:49;4.00;;;3.00;;
5483;SDS011;2764;48.794;8.326;2023-08-30T02:14:53;3.53;;;2.60;;
5483;SDS011;2764;48.794;8.326;2023-08-30T02:15:58;4.53;;;2.93;;
5483;SDS011;2764;48.794;8.326;2023-08-30T02:17:02;6.17;;;3.20;;
5483;SDS011;2764;48.794;8.326;2023-08-30T02:18:04;3.93;;;2.53;;
5483;SDS011;2764;48.794;8.326;2023-08-30T02:19:07;3.20;;;3.00;;
5483;SDS011;2764;48.794;8.326;2023-08-30T02:20:09;2.87;;;2.57;;
5483;SDS011;2764;48.794;8.326;2023-08-30T02:21:11;2.73;;;2.53;;
5483;SDS011;2764;48.794;8.326;2023-08-30T02:22:13;3.63;;;2.97;;
5483;SDS011;2764;48.794;8.326;2023-08-30T02:23:15;3.43;;;3.23;;
5483;SDS011;2764;48.794;8.326;2023-08-30T02:24:16;5.90;;;3.20;;
5483;SDS011;2764;48.794;8.326;2023-08-30T02:25:18;4.50;;;3.00;;
5483;SDS011;2764;48.794;8.326;2023-08-30T02:26:25;16.80;;;3.20;;
5483;SDS011;2764;48.794;8.326;2023-08-30T02:27:26;4.17;;;3.23;;
5483;SDS011;2764;48.794;8.326;2023-08-30T02:28:28;4.33;;;2.83;;
5483;SDS011;2764;48.794;8.326;2023-08-30T02:29:30;3.47;;;3.23;;
5483;SDS011;2764;48.794;8.326;2023-08-30T02:30:32;3.43;;;3.23;;
5483;SDS011;2764;48.794;8.326;2023-08-30T02:31:34;7.03;;;2.73;;
5483;SDS011;2764;48.794;8.326;2023-08-30T02:32:35;4.43;;;2.67;;
5483;SDS011;2764;48.794;8.326;2023-08-30T02:33:37;3.30;;;3.00;;
5483;SDS011;2764;48.794;8.326;2023-08-30T02:34:39;2.80;;;2.60;;
5483;SDS011;2764;48.794;8.326;2023-08-30T02:35:41;2.73;;;2.57;;
5483;SDS011;2764;48.794;8.326;2023-08-30T02:36:42;3.07;;;2.80;;
5483;SDS011;2764;48.794;8.326;2023-08-30T02:37:44;4.80;;;2.70;;
5483;SDS011;2764;48.794;8.326;2023-08-30T02:38:46;12.63;;;3.30;;
5483;SDS011;2764;48.794;8.326;2023-08-30T02:39:48;3.93;;;3.20;;
5483;SDS011;2764;48.794;8.326;2023-08-30T02:40:49;2.60;;;2.50;;
5483;SDS011;2764;48.794;8.326;2023-08-30T02:41:51;3.30;;;3.13;;
5483;SDS011;2764;48.794;8.326;2023-08-30T02:42:53;5.43;;;3.23;;
5483;SDS011;2764;48.794;8.326;2023-08-30T02:43:55;3.17;;;2.87;;
5483;SDS011;2764;48.794;8.326;2023-08-30T02:44:57;7.80;;;3.73;;
5483;SDS011;2764;48.794;8.326;2023-08-30T02:45:58;2.90;;;2.80;;
5483;SDS011;2764;48.794;8.326;2023-08-30T02:47:00;4.60;;;3.10;;
5483;SDS011;2764;48.794;8.326;2023-08-30T02:48:02;2.63;;;2.53;;
5483;SDS011;2764;48.794;8.326;2023-08-30T02:49:03;3.17;;;3.03;;
5483;SDS011;2764;48.794;8.326;2023-08-30T02:50:05;4.33;;;3.53;;
5483;SDS011;2764;48.794;8.326;2023-08-30T02:51:07;6.13;;;3.33;;
5483;SDS011;2764;48.794;8.326;2023-08-30T02:52:09;2.70;;;2.60;;
5483;SDS011;2764;48.794;8.326;2023-08-30T02:53:10;2.93;;;2.83;;
5483;SDS011;2764;48.794;8.326;2023-08-30T02:54:12;11.90;;;4.00;;
5483;SDS011;2764;48.794;8.326;2023-08-30T02:55:14;3.67;;;3.00;;
5483;SDS011;2764;48.794;8.326;2023-08-30T02:56:16;3.87;;;3.07;;
5483;SDS011;2764;48.794;8.326;2023-08-30T02:57:18;3.20;;;3.00;;
5483;SDS011;2764;48.794;8.326;2023-08-30T02:58:19;3.00;;;2.70;;
5483;SDS011;2764;48.794;8.326;2023-08-30T02:59:21;3.30;;;3.00;;
5483;SDS011;2764;48.794;8.326;2023-08-30T03:00:23;2.80;;;2.40;;
5483;SDS011;2764;48.794;8.326;2023-08-30T03:01:24;6.07;;;3.37;;
5483;SDS011;2764;48.794;8.326;2023-08-30T03:02:26;5.40;;;2.67;;
5483;SDS011;2764;48.794;8.326;2023-08-30T03:03:28;5.50;;;3.17;;
5483;SDS011;2764;48.794;8.326;2023-08-30T03:04:30;4.80;;;2.80;;
5483;SDS011;2764;48.794;8.326;2023-08-30T03:05:32;2.90;;;2.70;;
5483;SDS011;2764;48.794;8.326;2023-08-30T03:06:34;4.10;;;3.00;;
5483;SDS011;2764;48.794;8.326;2023-08-30T03:07:36;3.30;;;3.10;;
5483;SDS011;2764;48.794;8.326;2023-08-30T03:08:38;3.80;;;3.03;;
5483;SDS011;2764;48.794;8.326;2023-08-30T03:09:39;3.00;;;2.80;;
5483;SDS011;2764;48.794;8.326;2023-08-30T03:10:41;3.07;;;2.73;;
5483;SDS011;2764;48.794;8.326;2023-08-30T03:11:43;2.53;;;2.43;;
5483;SDS011;2764;48.794;8.326;2023-08-30T03:12:45;7.07;;;3.13;;
5483;SDS011;2764;48.794;8.326;2023-08-30T03:13:47;3.10;;;2.90;;
5483;SDS011;2764;48.794;8.326;2023-08-30T03:14:48;5.50;;;2.73;;
5483;SDS011;2764;48.794;8.326;2023-08-30T03:15:50;3.00;;;2.80;;
5483;SDS011;2764;48.794;8.326;2023-08-30T03:16:52;3.53;;;3.13;;
5483;SDS011;2764;48.794;8.326;2023-08-30T03:17:53;2.70;;;2.60;;
5483;SDS011;2764;48.794;8.326;2023-08-30T03:18:55;3.03;;;2.80;;
5483;SDS011;2764;48.794;8.326;2023-08-30T03:19:57;3.30;;;3.10;;
5483;SDS011;2764;48.794;8.326;2023-08-30T03:21:00;2.90;;;2.60;;
5483;SDS011;2764;48.794;8.326;2023-08-30T03:22:03;2.70;;;2.60;;
5483;SDS011;2764;48.794;8.326;2023-08-30T03:23:05;3.43;;;2.37;;
5483;SDS011;2764;48.794;8.326;2023-08-30T03:24:06;3.50;;;3.20;;
5483;SDS011;2764;48.794;8.326;2023-08-30T03:25:08;2.80;;;2.60;;
5483;SDS011;2764;48.794;8.326;2023-08-30T03:26:11;3.20;;;2.80;;
5483;SDS011;2764;48.794;8.326;2023-08-30T03:27:14;3.93;;;2.70;;
5483;SDS011;2764;48.794;8.326;2023-08-30T03:28:15;3.63;;;3.20;;
5483;SDS011;2764;48.794;8.326;2023-08-30T03:29:17;5.00;;;2.90;;
5483;SDS011;2764;48.794;8.326;2023-08-30T03:30:18;3.27;;;2.93;;
5483;SDS011;2764;48.794;8.326;2023-08-30T03:31:20;4.07;;;2.90;;
5483;SDS011;2764;48.794;8.326;2023-08-30T03:32:23;2.93;;;2.80;;
5483;SDS011;2764;48.794;8.326;2023-08-30T03:33:25;2.70;;;2.50;;
5483;SDS011;2764;48.794;8.326;2023-08-30T03:34:26;3.20;;;3.03;;
5483;SDS011;2764;48.794;8.326;2023-08-30T03:35:28;3.07;;;2.80;;
5483;SDS011;2764;48.794;8.326;2023-08-30T03:36:30;3.20;;;2.90;;
5483;SDS011;2764;48.794;8.326;2023-08-30T03:37:32;3.07;;;2.60;;
5483;SDS011;2764;48.794;8.326;2023-08-30T03:38:36;2.63;;;2.43;;
5483;SDS011;2764;48.794;8.326;2023-08-30T03:39:38;4.40;;;2.67;;
5483;SDS011;2764;48.794;8.326;2023-08-30T03:40:40;3.10;;;2.90;;
5483;SDS011;2764;48.794;8.326;2023-08-30T03:41:42;3.13;;;2.93;;
5483;SDS011;2764;48.794;8.326;2023-08-30T03:42:43;2.93;;;2.47;;
5483;SDS011;2764;48.794;8.326;2023-08-30T03:43:45;3.63;;;3.40;;
5483;SDS011;2764;48.794;8.326;2023-08-30T03:44:47;3.10;;;2.60;;
5483;SDS011;2764;48.794;8.326;2023-08-30T03:45:49;2.60;;;2.40;;
5483;SDS011;2764;48.794;8.326;2023-08-30T03:46:51;2.47;;;2.30;;
5483;SDS011;2764;48.794;8.326;2023-08-30T03:47:52;3.50;;;2.70;;
5483;SDS011;2764;48.794;8.326;2023-08-30T03:48:54;2.70;;;2.60;;
5483;SDS011;2764;48.794;8.326;2023-08-30T03:49:57;4.10;;;2.57;;
5483;SDS011;2764;48.794;8.326;2023-08-30T03:51:00;3.73;;;2.93;;
5483;SDS011;2764;48.794;8.326;2023-08-30T03:52:02;3.80;;;2.40;;
5483;SDS011;2764;48.794;8.326;2023-08-30T03:53:04;4.20;;;2.70;;
5483;SDS011;2764;48.794;8.326;2023-08-30T03:54:05;2.30;;;2.20;;
5483;SDS011;2764;48.794;8.326;2023-08-30T03:55:07;2.80;;;2.50;;
5483;SDS011;2764;48.794;8.326;2023-08-30T03:56:09;2.23;;;2.13;;
5483;SDS011;2764;48.794;8.326;2023-08-30T03:57:11;2.30;;;2.20;;
5483;SDS011;2764;48.794;8.326;2023-08-30T03:58:12;2.60;;;2.40;;
5483;SDS011;2764;48.794;8.326;2023-08-30T03:59:14;3.10;;;2.40;;
5483;SDS011;2764;48.794;8.326;2023-08-30T04:00:16;7.60;;;3.37;;
5483;SDS011;2764;48.794;8.326;2023-08-30T04:01:18;4.03;;;2.60;;
5483;SDS011;2764;48.794;8.326;2023-08-30T04:02:19;2.97;;;2.63;;
5483;SDS011;2764;48.794;8.326;2023-08-30T04:03:21;2.43;;;2.33;;
5483;SDS011;2764;48.794;8.326;2023-08-30T04:04:23;2.90;;;2.70;;
5483;SDS011;2764;48.794;8.326;2023-08-30T04:05:27;2.73;;;2.53;;
5483;SDS011;2764;48.794;8.326;2023-08-30T04:06:33;3.47;;;2.40;;
5483;SDS011;2764;48.794;8.326;2023-08-30T04:07:35;2.73;;;2.53;;
5483;SDS011;2764;48.794;8.326;2023-08-30T04:08:37;2.50;;;2.40;;
5483;SDS011;2764;48.794;8.326;2023-08-30T04:09:39;3.07;;;2.87;;
5483;SDS011;2764;48.794;8.326;2023-08-30T04:10:41;2.77;;;2.60;;
5483;SDS011;2764;48.794;8.326;2023-08-30T04:11:43;5.70;;;2.70;;
5483;SDS011;2764;48.794;8.326;2023-08-30T04:12:45;3.40;;;2.97;;
5483;SDS011;2764;48.794;8.326;2023-08-30T04:13:47;2.50;;;2.40;;
5483;SDS011;2764;48.794;8.326;2023-08-30T04:14:49;3.33;;;2.40;;
5483;SDS011;2764;48.794;8.326;2023-08-30T04:15:51;5.30;;;2.40;;
5483;SDS011;2764;48.794;8.326;2023-08-30T04:16:53;2.70;;;2.50;;
5483;SDS011;2764;48.794;8.326;2023-08-30T04:17:54;2.00;;;1.90;;
5483;SDS011;2764;48.794;8.326;2023-08-30T04:18:56;2.30;;;2.20;;
5483;SDS011;2764;48.794;8.326;2023-08-30T04:19:58;6.83;;;2.20;;
5483;SDS011;2764;48.794;8.326;2023-08-30T04:21:01;6.00;;;3.13;;
5483;SDS011;2764;48.794;8.326;2023-08-30T04:22:03;2.73;;;2.53;;
5483;SDS011;2764;48.794;8.326;2023-08-30T04:23:05;2.50;;;2.40;;
5483;SDS011;2764;48.794;8.326;2023-08-30T04:24:07;2.70;;;2.60;;
5483;SDS011;2764;48.794;8.326;2023-08-30T04:25:09;6.77;;;3.10;;
5483;SDS011;2764;48.794;8.326;2023-08-30T04:26:11;2.97;;;2.50;;
5483;SDS011;2764;48.794;8.326;2023-08-30T04:27:12;3.07;;;2.80;;
5483;SDS011;2764;48.794;8.326;2023-08-30T04:28:14;2.90;;;2.70;;
5483;SDS011;2764;48.794;8.326;2023-08-30T04:29:16;3.43;;;3.23;;
5483;SDS011;2764;48.794;8.326;2023-08-30T04:30:17;2.97;;;2.77;;
5483;SDS011;2764;48.794;8.326;2023-08-30T04:31:19;2.70;;;2.50;;
5483;SDS011;2764;48.794;8.326;2023-08-30T04:32:21;2.77;;;2.67;;
5483;SDS011;2764;48.794;8.326;2023-08-30T04:33:23;4.50;;;3.03;;
5483;SDS011;2764;48.794;8.326;2023-08-30T04:34:25;8.63;;;2.77;;
5483;SDS011;2764;48.794;8.326;2023-08-30T04:35:27;2.80;;;2.60;;
5483;SDS011;2764;48.794;8.326;2023-08-30T04:36:29;2.93;;;2.60;;
5483;SDS011;2764;48.794;8.326;2023-08-30T04:37:30;4.50;;;2.80;;
5483;SDS011;2764;48.794;8.326;2023-08-30T04:38:35;5.70;;;2.70;;
5483;SDS011;2764;48.794;8.326;2023-08-30T04:39:48;3.30;;;3.10;;
5483;SDS011;2764;48.794;8.326;2023-08-30T04:40:50;3.57;;;3.30;;
5483;SDS011;2764;48.794;8.326;2023-08-30T04:41:57;3.80;;;3.20;;
5483;SDS011;2764;48.794;8.326;2023-08-30T04:42:59;4.57;;;2.70;;
5483;SDS011;2764;48.794;8.326;2023-08-30T04:44:01;6.87;;;3.30;;
5483;SDS011;2764;48.794;8.326;2023-08-30T04:45:03;4.00;;;3.07;;
5483;SDS011;2764;48.794;8.326;2023-08-30T04:46:05;8.03;;;3.23;;
5483;SDS011;2764;48.794;8.326;2023-08-30T04:47:07;2.97;;;2.77;;
5483;SDS011;2764;48.794;8.326;2023-08-30T04:48:10;4.70;;;2.90;;
5483;SDS011;2764;48.794;8.326;2023-08-30T04:49:12;3.10;;;2.90;;
5483;SDS011;2764;48.794;8.326;2023-08-30T04:50:17;3.00;;;2.90;;
5483;SDS011;2764;48.794;8.326;2023-08-30T04:51:18;5.27;;;3.20;;
5483;SDS011;2764;48.794;8.326;2023-08-30T04:52:20;4.87;;;2.97;;
5483;SDS011;2764;48.794;8.326;2023-08-30T04:53:23;3.20;;;3.00;;
5483;SDS011;2764;48.794;8.326;2023-08-30T04:54:24;3.17;;;2.60;;
5483;SDS011;2764;48.794;8.326;2023-08-30T04:55:29;5.03;;;2.67;;
5483;SDS011;2764;48.794;8.326;2023-08-30T04:56:31;3.97;;;3.67;;
5483;SDS011;2764;48.794;8.326;2023-08-30T04:57:32;12.73;;;3.30;;
5483;SDS011;2764;48.794;8.326;2023-08-30T04:58:34;3.00;;;2.80;;
5483;SDS011;2764;48.794;8.326;2023-08-30T04:59:36;3.80;;;3.03;;
5483;SDS011;2764;48.794;8.326;2023-08-30T05:00:37;5.13;;;3.30;;
5483;SDS011;2764;48.794;8.326;2023-08-30T05:01:39;2.50;;;2.40;;
5483;SDS011;2764;48.794;8.326;2023-08-30T05:02:43;3.30;;;3.10;;
5483;SDS011;2764;48.794;8.326;2023-08-30T05:03:47;3.27;;;3.07;;
5483;SDS011;2764;48.794;8.326;2023-08-30T05:04:50;6.73;;;3.60;;
5483;SDS011;2764;48.794;8.326;2023-08-30T05:05:51;3.37;;;3.00;;
5483;SDS011;2764;48.794;8.326;2023-08-30T05:06:53;4.60;;;3.40;;
5483;SDS011;2764;48.794;8.326;2023-08-30T05:07:55;2.97;;;2.80;;
5483;SDS011;2764;48.794;8.326;2023-08-30T05:08:57;8.93;;;2.70;;
5483;SDS011;2764;48.794;8.326;2023-08-30T05:09:59;3.73;;;3.23;;
5483;SDS011;2764;48.794;8.326;2023-08-30T05:11:01;3.60;;;2.90;;
5483;SDS011;2764;48.794;8.326;2023-08-30T05:12:07;6.87;;;2.77;;
5483;SDS011;2764;48.794;8.326;2023-08-30T05:13:09;4.87;;;3.40;;
5483;SDS011;2764;48.794;8.326;2023-08-30T05:14:11;3.23;;;2.77;;
5483;SDS011;2764;48.794;8.326;2023-08-30T05:15:14;3.50;;;3.20;;
5483;SDS011;2764;48.794;8.326;2023-08-30T05:16:15;3.33;;;2.97;;
5483;SDS011;2764;48.794;8.326;2023-08-30T05:17:17;4.30;;;2.90;;
5483;SDS011;2764;48.794;8.326;2023-08-30T05:18:19;3.20;;;3.00;;
5483;SDS011;2764;48.794;8.326;2023-08-30T05:19:21;9.00;;;3.10;;
5483;SDS011;2764;48.794;8.326;2023-08-30T05:20:22;6.43;;;2.93;;
5483;SDS011;2764;48.794;8.326;2023-08-30T05:21:24;3.20;;;3.00;;
5483;SDS011;2764;48.794;8.326;2023-08-30T05:22:28;14.90;;;3.30;;
5483;SDS011;2764;48.794;8.326;2023-08-30T05:23:30;4.20;;;3.27;;
5483;SDS011;2764;48.794;8.326;2023-08-30T05:24:32;3.23;;;3.03;;
5483;SDS011;2764;48.794;8.326;2023-08-30T05:25:35;2.90;;;2.70;;
5483;SDS011;2764;48.794;8.326;2023-08-30T05:26:37;3.23;;;2.87;;
5483;SDS011;2764;48.794;8.326;2023-08-30T05:27:38;3.40;;;3.10;;
5483;SDS011;2764;48.794;8.326;2023-08-30T05:28:40;4.10;;;2.90;;
5483;SDS011;2764;48.794;8.326;2023-08-30T05:29:41;2.23;;;2.13;;
5483;SDS011;2764;48.794;8.326;2023-08-30T05:30:44;2.33;;;2.23;;
5483;SDS011;2764;48.794;8.326;2023-08-30T05:31:46;2.00;;;1.90;;
5483;SDS011;2764;48.794;8.326;2023-08-30T05:32:47;2.03;;;1.90;;
5483;SDS011;2764;48.794;8.326;2023-08-30T05:33:49;2.40;;;2.30;;
5483;SDS011;2764;48.794;8.326;2023-08-30T05:34:51;3.03;;;2.33;;
5483;SDS011;2764;48.794;8.326;2023-08-30T05:35:53;2.70;;;2.50;;
5483;SDS011;2764;48.794;8.326;2023-08-30T05:36:54;2.60;;;2.50;;
5483;SDS011;2764;48.794;8.326;2023-08-30T05:37:56;2.60;;;2.40;;
5483;SDS011;2764;48.794;8.326;2023-08-30T05:38:58;5.30;;;2.50;;
5483;SDS011;2764;48.794;8.326;2023-08-30T05:39:59;2.93;;;2.77;;
5483;SDS011;2764;48.794;8.326;2023-08-30T05:41:01;4.10;;;3.30;;
5483;SDS011;2764;48.794;8.326;2023-08-30T05:42:03;2.23;;;2.13;;
5483;SDS011;2764;48.794;8.326;2023-08-30T05:43:05;3.03;;;2.83;;
5483;SDS011;2764;48.794;8.326;2023-08-30T05:44:06;5.03;;;3.10;;
5483;SDS011;2764;48.794;8.326;2023-08-30T05:45:08;2.60;;;2.50;;
5483;SDS011;2764;48.794;8.326;2023-08-30T05:46:10;3.00;;;2.83;;
5483;SDS011;2764;48.794;8.326;2023-08-30T05:47:13;5.00;;;3.00;;
5483;SDS011;2764;48.794;8.326;2023-08-30T05:48:16;2.97;;;2.67;;
5483;SDS011;2764;48.794;8.326;2023-08-30T05:49:18;2.77;;;2.57;;
5483;SDS011;2764;48.794;8.326;2023-08-30T05:50:20;3.07;;;2.37;;
5483;SDS011;2764;48.794;8.326;2023-08-30T05:51:22;3.30;;;2.80;;
5483;SDS011;2764;48.794;8.326;2023-08-30T05:52:23;2.90;;;2.80;;
5483;SDS011;2764;48.794;8.326;2023-08-30T05:53:26;3.57;;;2.60;;
5483;SDS011;2764;48.794;8.326;2023-08-30T05:54:28;3.30;;;2.60;;
5483;SDS011;2764;48.794;8.326;2023-08-30T05:55:32;2.80;;;2.60;;
5483;SDS011;2764;48.794;8.326;2023-08-30T05:56:34;2.97;;;2.73;;
5483;SDS011;2764;48.794;8.326;2023-08-30T05:57:36;2.53;;;2.43;;
5483;SDS011;2764;48.794;8.326;2023-08-30T05:58:38;2.80;;;2.60;;
5483;SDS011;2764;48.794;8.326;2023-08-30T05:59:39;4.13;;;2.80;;
5483;SDS011;2764;48.794;8.326;2023-08-30T06:00:41;3.90;;;2.47;;
5483;SDS011;2764;48.794;8.326;2023-08-30T06:01:43;4.77;;;3.00;;
5483;SDS011;2764;48.794;8.326;2023-08-30T06:02:45;2.90;;;2.63;;
5483;SDS011;2764;48.794;8.326;2023-08-30T06:03:47;7.57;;;2.80;;
5483;SDS011;2764;48.794;8.326;2023-08-30T06:04:49;3.70;;;3.20;;
5483;SDS011;2764;48.794;8.326;2023-08-30T06:05:51;2.50;;;2.30;;
5483;SDS011;2764;48.794;8.326;2023-08-30T06:06:53;4.70;;;3.77;;
5483;SDS011;2764;48.794;8.326;2023-08-30T06:07:55;4.63;;;3.10;;
5483;SDS011;2764;48.794;8.326;2023-08-30T06:08:57;8.00;;;2.50;;
5483;SDS011;2764;48.794;8.326;2023-08-30T06:09:59;2.67;;;2.47;;
5483;SDS011;2764;48.794;8.326;2023-08-30T06:11:01;3.00;;;2.80;;
5483;SDS011;2764;48.794;8.326;2023-08-30T06:12:03;2.80;;;2.70;;
5483;SDS011;2764;48.794;8.326;2023-08-30T06:13:05;2.83;;;2.57;;
5483;SDS011;2764;48.794;8.326;2023-08-30T06:14:07;3.10;;;2.90;;
5483;SDS011;2764;48.794;8.326;2023-08-30T06:15:11;2.97;;;2.70;;
5483;SDS011;2764;48.794;8.326;2023-08-30T06:16:13;2.80;;;2.50;;
5483;SDS011;2764;48.794;8.326;2023-08-30T06:17:15;3.83;;;3.50;;
5483;SDS011;2764;48.794;8.326;2023-08-30T06:18:17;2.83;;;2.63;;
5483;SDS011;2764;48.794;8.326;2023-08-30T06:19:19;2.73;;;2.53;;
5483;SDS011;2764;48.794;8.326;2023-08-30T06:20:20;2.80;;;2.60;;
5483;SDS011;2764;48.794;8.326;2023-08-30T06:21:22;2.63;;;2.53;;
5483;SDS011;2764;48.794;8.326;2023-08-30T06:22:24;2.70;;;2.50;;
5483;SDS011;2764;48.794;8.326;2023-08-30T06:23:25;3.10;;;2.90;;
5483;SDS011;2764;48.794;8.326;2023-08-30T06:24:27;5.07;;;3.00;;
5483;SDS011;2764;48.794;8.326;2023-08-30T06:25:29;3.70;;;3.20;;
5483;SDS011;2764;48.794;8.326;2023-08-30T06:26:30;2.90;;;2.70;;
5483;SDS011;2764;48.794;8.326;2023-08-30T06:27:32;2.77;;;2.67;;
5483;SDS011;2764;48.794;8.326;2023-08-30T06:28:34;2.60;;;2.50;;
5483;SDS011;2764;48.794;8.326;2023-08-30T06:29:38;3.37;;;3.00;;
5483;SDS011;2764;48.794;8.326;2023-08-30T06:30:40;4.30;;;2.57;;
5483;SDS011;2764;48.794;8.326;2023-08-30T06:31:42;2.57;;;2.47;;
5483;SDS011;2764;48.794;8.326;2023-08-30T06:32:43;2.57;;;2.47;;
5483;SDS011;2764;48.794;8.326;2023-08-30T06:33:45;4.67;;;2.33;;
5483;SDS011;2764;48.794;8.326;2023-08-30T06:34:47;4.50;;;2.60;;